sensor_id;sensor_type;location;lat;lon;timestamp;pressure;altitude;pressure_sealevel;temperature;humidity
12973;BME280;6551;51.056;9.466;2023-02-18T00:01:29;98030.94;;;10.82;90.01
12973;BME280;6551;51.056;9.466;2023-02-18T00:03:57;98023.34;;;10.86;89.64
12973;BME280;6551;51.056;9.466;2023-02-18T00:06:30;98034.78;;;10.93;90.11
12973;BME280;6551;51.056;9.466;2023-02-18T00:08:57;98038.09;;;10.88;89.79
12973;BME280;6551;51.056;9.466;2023-02-18T00:11:33;98039.94;;;10.88;89.79
12973;BME280;6551;51.056;9.466;2023-02-18T00:14:02;98038.31;;;10.87;89.94
12973;BME280;6551;51.056;9.466;2023-02-18T00:16:29;98048.53;;;10.90;89.59
12973;BME280;6551;51.056;9.466;2023-02-18T00:19:01;98036.03;;;10.90;89.27
12973;BME280;6551;51.056;9.466;2023-02-18T00:21:29;98042.97;;;10.91;89.26
12973;BME280;6551;51.056;9.466;2023-02-18T00:23:56;98044.03;;;10.90;89.23
12973;BME280;6551;51.056;9.466;2023-02-18T00:26:22;98050.19;;;10.84;89.17
12973;BME280;6551;51.056;9.466;2023-02-18T00:28:49;98053.63;;;10.91;89.32
12973;BME280;6551;51.056;9.466;2023-02-18T00:31:23;98055.09;;;10.94;89.75
12973;BME280;6551;51.056;9.466;2023-02-18T00:33:50;98049.78;;;10.87;89.71
12973;BME280;6551;51.056;9.466;2023-02-18T00:36:19;98040.13;;;10.86;89.52
12973;BME280;6551;51.056;9.466;2023-02-18T00:38:52;98039.31;;;10.92;89.32
12973;BME280;6551;51.056;9.466;2023-02-18T00:41:19;98041.16;;;10.92;89.15
12973;BME280;6551;51.056;9.466;2023-02-18T00:43:47;98034.56;;;10.94;89.04
12973;BME280;6551;51.056;9.466;2023-02-18T00:46:13;98040.09;;;10.99;89.03
12973;BME280;6551;51.056;9.466;2023-02-18T00:48:40;98027.22;;;10.96;89.46
12973;BME280;6551;51.056;9.466;2023-02-18T00:51:07;98041.16;;;10.92;89.53
12973;BME280;6551;51.056;9.466;2023-02-18T00:53:33;98032.56;;;10.90;89.62
12973;BME280;6551;51.056;9.466;2023-02-18T00:55:59;98032.56;;;10.90;89.88
12973;BME280;6551;51.056;9.466;2023-02-18T00:58:25;98041.16;;;10.92;90.30
12973;BME280;6551;51.056;9.466;2023-02-18T01:00:53;98042.31;;;11.02;89.98
12973;BME280;6551;51.056;9.466;2023-02-18T01:03:20;98027.81;;;10.98;90.04
12973;BME280;6551;51.056;9.466;2023-02-18T01:05:50;98015.00;;;10.69;90.94
12973;BME280;6551;51.056;9.466;2023-02-18T01:08:19;98026.66;;;10.81;90.78
12973;BME280;6551;51.056;9.466;2023-02-18T01:10:53;98029.31;;;10.75;91.25
12973;BME280;6551;51.056;9.466;2023-02-18T01:13:19;98027.53;;;10.69;91.65
12973;BME280;6551;51.056;9.466;2023-02-18T01:15:47;98036.53;;;10.68;92.04
12973;BME280;6551;51.056;9.466;2023-02-18T01:18:13;98033.69;;;10.63;92.33
12973;BME280;6551;51.056;9.466;2023-02-18T01:20:42;98043.91;;;10.66;92.69
12973;BME280;6551;51.056;9.466;2023-02-18T01:23:08;98048.44;;;10.58;92.62
12973;BME280;6551;51.056;9.466;2023-02-18T01:25:35;98046.81;;;10.57;93.15
12973;BME280;6551;51.056;9.466;2023-02-18T01:28:01;98052.94;;;10.58;93.11
12973;BME280;6551;51.056;9.466;2023-02-18T01:30:28;98052.56;;;10.54;93.10
12973;BME280;6551;51.056;9.466;2023-02-18T01:32:56;98055.00;;;10.56;93.33
12973;BME280;6551;51.056;9.466;2023-02-18T01:35:24;98040.06;;;10.55;93.68
12973;BME280;6551;51.056;9.466;2023-02-18T01:37:50;98045.41;;;10.48;93.81
12973;BME280;6551;51.056;9.466;2023-02-18T01:40:25;98043.34;;;10.50;94.31
12973;BME280;6551;51.056;9.466;2023-02-18T01:42:53;98043.59;;;10.29;95.31
12973;BME280;6551;51.056;9.466;2023-02-18T01:45:45;98045.03;;;10.25;95.83
12973;BME280;6551;51.056;9.466;2023-02-18T01:48:25;98030.88;;;10.25;96.31
12973;BME280;6551;51.056;9.466;2023-02-18T01:51:01;98026.38;;;10.25;96.52
12973;BME280;6551;51.056;9.466;2023-02-18T01:54:05;98036.63;;;10.28;96.34
12973;BME280;6551;51.056;9.466;2023-02-18T01:57:23;98032.72;;;10.31;96.52
12973;BME280;6551;51.056;9.466;2023-02-18T02:00:05;98040.09;;;10.29;96.53
12973;BME280;6551;51.056;9.466;2023-02-18T02:02:35;98039.88;;;10.11;97.58
12973;BME280;6551;51.056;9.466;2023-02-18T02:05:02;98034.38;;;9.99;97.85
12973;BME280;6551;51.056;9.466;2023-02-18T02:07:28;98031.50;;;9.94;98.37
12973;BME280;6551;51.056;9.466;2023-02-18T02:09:58;98020.69;;;10.02;98.50
12973;BME280;6551;51.056;9.466;2023-02-18T02:13:10;98019.84;;;10.02;98.69
12973;BME280;6551;51.056;9.466;2023-02-18T02:15:57;98019.84;;;10.08;98.53
12973;BME280;6551;51.056;9.466;2023-02-18T02:18:42;98013.13;;;10.19;98.16
12973;BME280;6551;51.056;9.466;2023-02-18T02:24:36;98012.72;;;10.15;98.18
12973;BME280;6551;51.056;9.466;2023-02-18T02:27:10;98017.81;;;10.10;98.35
12973;BME280;6551;51.056;9.466;2023-02-18T02:36:28;98015.78;;;10.19;98.94
12973;BME280;6551;51.056;9.466;2023-02-18T02:39:54;98007.97;;;10.17;99.50
12973;BME280;6551;51.056;9.466;2023-02-18T02:54:20;98001.00;;;10.10;100.00
12973;BME280;6551;51.056;9.466;2023-02-18T02:56:47;97995.28;;;10.06;100.00
12973;BME280;6551;51.056;9.466;2023-02-18T02:59:22;98003.69;;;10.03;100.00
12973;BME280;6551;51.056;9.466;2023-02-18T03:02:27;98007.34;;;10.09;100.00
12973;BME280;6551;51.056;9.466;2023-02-18T03:11:12;98016.16;;;10.09;100.00
12973;BME280;6551;51.056;9.466;2023-02-18T03:16:58;98006.94;;;10.12;100.00
12973;BME280;6551;51.056;9.466;2023-02-18T03:19:39;97993.03;;;10.03;100.00
12973;BME280;6551;51.056;9.466;2023-02-18T03:22:19;98001.63;;;10.05;99.83
12973;BME280;6551;51.056;9.466;2023-02-18T03:24:53;97998.75;;;10.07;100.00
12973;BME280;6551;51.056;9.466;2023-02-18T03:27:48;97987.34;;;10.13;99.38
12973;BME280;6551;51.056;9.466;2023-02-18T03:30:39;98002.44;;;10.12;99.29
12973;BME280;6551;51.056;9.466;2023-02-18T03:33:12;98001.66;;;10.18;99.14
12973;BME280;6551;51.056;9.466;2023-02-18T03:35:40;97999.19;;;10.17;99.05
12973;BME280;6551;51.056;9.466;2023-02-18T03:38:32;98006.75;;;10.20;99.05
12973;BME280;6551;51.056;9.466;2023-02-18T03:40:59;97992.03;;;10.17;99.41
12973;BME280;6551;51.056;9.466;2023-02-18T03:43:24;97992.03;;;10.17;99.21
12973;BME280;6551;51.056;9.466;2023-02-18T03:45:51;97979.09;;;10.34;98.73
12973;BME280;6551;51.056;9.466;2023-02-18T03:48:18;97981.56;;;10.29;98.46
12973;BME280;6551;51.056;9.466;2023-02-18T03:50:46;97982.38;;;10.29;98.36
12973;BME280;6551;51.056;9.466;2023-02-18T03:53:12;97966.41;;;10.23;98.35
12973;BME280;6551;51.056;9.466;2023-02-18T03:55:37;97960.91;;;10.18;98.18
12973;BME280;6551;51.056;9.466;2023-02-18T03:58:03;97967.06;;;10.18;98.26
12973;BME280;6551;51.056;9.466;2023-02-18T04:00:30;97963.16;;;10.21;98.15
12973;BME280;6551;51.056;9.466;2023-02-18T04:02:56;97956.59;;;10.17;98.27
12973;BME280;6551;51.056;9.466;2023-02-18T04:05:23;97943.31;;;10.10;98.35
12973;BME280;6551;51.056;9.466;2023-02-18T04:07:49;97928.78;;;10.06;98.22
12973;BME280;6551;51.056;9.466;2023-02-18T04:10:16;97938.19;;;10.15;97.99
12973;BME280;6551;51.056;9.466;2023-02-18T04:12:43;97934.72;;;10.21;97.26
12973;BME280;6551;51.056;9.466;2023-02-18T04:15:09;97928.34;;;10.22;96.89
12973;BME280;6551;51.056;9.466;2023-02-18T04:17:34;97921.00;;;10.24;96.52
12973;BME280;6551;51.056;9.466;2023-02-18T04:20:00;97922.81;;;10.24;96.56
12973;BME280;6551;51.056;9.466;2023-02-18T04:22:26;97917.91;;;10.21;96.51
12973;BME280;6551;51.056;9.466;2023-02-18T04:24:53;97917.69;;;10.29;96.10
12973;BME280;6551;51.056;9.466;2023-02-18T04:27:21;97923.59;;;10.31;95.79
12973;BME280;6551;51.056;9.466;2023-02-18T04:29:50;97915.59;;;10.37;95.95
12973;BME280;6551;51.056;9.466;2023-02-18T04:32:16;97907.81;;;10.36;95.59
12973;BME280;6551;51.056;9.466;2023-02-18T04:34:44;97915.59;;;10.37;95.57
12973;BME280;6551;51.056;9.466;2023-02-18T04:37:09;97919.28;;;10.36;95.09
12973;BME280;6551;51.056;9.466;2023-02-18T04:39:35;97917.03;;;10.40;94.55
12973;BME280;6551;51.056;9.466;2023-02-18T04:42:02;97917.63;;;10.42;94.48
12973;BME280;6551;51.056;9.466;2023-02-18T04:44:36;97910.47;;;10.42;94.50
12973;BME280;6551;51.056;9.466;2023-02-18T04:47:04;97912.09;;;10.43;94.28
12973;BME280;6551;51.056;9.466;2023-02-18T04:49:32;97910.63;;;10.47;93.89
12973;BME280;6551;51.056;9.466;2023-02-18T04:51:57;97910.88;;;10.39;93.69
12973;BME280;6551;51.056;9.466;2023-02-18T04:54:24;97899.81;;;10.42;93.57
12973;BME280;6551;51.056;9.466;2023-02-18T04:56:50;97893.47;;;10.43;93.30
12973;BME280;6551;51.056;9.466;2023-02-18T04:59:17;97884.25;;;10.46;92.96
12973;BME280;6551;51.056;9.466;2023-02-18T05:01:46;97885.06;;;10.46;92.81
12973;BME280;6551;51.056;9.466;2023-02-18T05:04:12;97895.31;;;10.43;92.62
12973;BME280;6551;51.056;9.466;2023-02-18T05:06:38;97896.13;;;10.43;92.65
12973;BME280;6551;51.056;9.466;2023-02-18T05:09:08;97893.25;;;10.45;92.16
12973;BME280;6551;51.056;9.466;2023-02-18T05:11:34;97892.81;;;10.48;91.86
12973;BME280;6551;51.056;9.466;2023-02-18T05:14:01;97896.28;;;10.55;92.14
12973;BME280;6551;51.056;9.466;2023-02-18T05:16:28;97891.59;;;10.50;92.34
12973;BME280;6551;51.056;9.466;2023-02-18T05:18:54;97880.16;;;10.43;92.43
12973;BME280;6551;51.056;9.466;2023-02-18T05:21:21;97889.56;;;10.46;92.43
12973;BME280;6551;51.056;9.466;2023-02-18T05:23:48;97903.69;;;10.46;92.67
12973;BME280;6551;51.056;9.466;2023-02-18T05:26:13;97899.03;;;10.35;93.44
12973;BME280;6551;51.056;9.466;2023-02-18T05:28:40;97891.41;;;10.45;93.95
12973;BME280;6551;51.056;9.466;2023-02-18T05:31:06;97890.22;;;10.35;94.96
12973;BME280;6551;51.056;9.466;2023-02-18T05:33:33;97879.00;;;10.26;95.70
12973;BME280;6551;51.056;9.466;2023-02-18T05:35:59;97863.88;;;10.20;96.69
12973;BME280;6551;51.056;9.466;2023-02-18T05:38:25;97876.19;;;10.15;98.11
12973;BME280;6551;51.056;9.466;2023-02-18T05:40:52;97872.47;;;10.22;98.31
12973;BME280;6551;51.056;9.466;2023-02-18T05:43:19;97865.53;;;10.15;99.41
12973;BME280;6551;51.056;9.466;2023-02-18T05:45:44;97872.94;;;10.13;99.85
12973;BME280;6551;51.056;9.466;2023-02-18T05:48:10;97862.66;;;10.10;100.00
12973;BME280;6551;51.056;9.466;2023-02-18T05:50:37;97857.75;;;10.07;100.00
12973;BME280;6551;51.056;9.466;2023-02-18T05:53:03;97863.09;;;10.00;100.00
12973;BME280;6551;51.056;9.466;2023-02-18T05:55:29;97868.06;;;9.90;100.00
12973;BME280;6551;51.056;9.466;2023-02-18T05:57:54;97852.56;;;9.67;100.00
12973;BME280;6551;51.056;9.466;2023-02-18T06:00:21;97861.72;;;9.84;100.00
12973;BME280;6551;51.056;9.466;2023-02-18T06:02:50;97861.56;;;9.73;100.00
12973;BME280;6551;51.056;9.466;2023-02-18T06:05:17;97839.44;;;9.85;100.00
12973;BME280;6551;51.056;9.466;2023-02-18T06:07:43;97850.28;;;9.84;100.00
12973;BME280;6551;51.056;9.466;2023-02-18T06:10:09;97846.31;;;9.99;100.00
12973;BME280;6551;51.056;9.466;2023-02-18T06:12:35;97843.09;;;9.91;100.00
12973;BME280;6551;51.056;9.466;2023-02-18T06:15:01;97826.28;;;9.97;100.00
12973;BME280;6551;51.056;9.466;2023-02-18T06:17:26;97845.31;;;10.00;100.00
12973;BME280;6551;51.056;9.466;2023-02-18T06:19:53;97835.06;;;10.04;100.00
12973;BME280;6551;51.056;9.466;2023-02-18T06:22:19;97828.50;;;10.07;100.00
12973;BME280;6551;51.056;9.466;2023-02-18T06:24:46;97824.00;;;10.14;100.00
12973;BME280;6551;51.056;9.466;2023-02-18T06:27:11;97821.34;;;10.07;100.00
12973;BME280;6551;51.056;9.466;2023-02-18T06:29:37;97828.53;;;10.13;100.00
12973;BME280;6551;51.056;9.466;2023-02-18T06:32:03;97812.56;;;10.13;100.00
12973;BME280;6551;51.056;9.466;2023-02-18T06:34:28;97828.28;;;10.08;100.00
12973;BME280;6551;51.056;9.466;2023-02-18T06:36:56;97821.31;;;10.14;100.00
12973;BME280;6551;51.056;9.466;2023-02-18T06:39:22;97830.53;;;10.11;100.00
12973;BME280;6551;51.056;9.466;2023-02-18T06:41:49;97811.28;;;10.09;100.00
12973;BME280;6551;51.056;9.466;2023-02-18T06:44:16;97814.56;;;10.11;100.00
12973;BME280;6551;51.056;9.466;2023-02-18T06:46:43;97807.03;;;10.02;100.00
12973;BME280;6551;51.056;9.466;2023-02-18T06:49:09;97812.53;;;10.07;100.00
12973;BME280;6551;51.056;9.466;2023-02-18T06:51:35;97805.56;;;10.12;100.00
12973;BME280;6551;51.056;9.466;2023-02-18T06:54:00;97810.69;;;10.14;100.00
12973;BME280;6551;51.056;9.466;2023-02-18T06:56:27;97805.38;;;10.14;100.00
12973;BME280;6551;51.056;9.466;2023-02-18T06:58:54;97800.31;;;9.99;100.00
12973;BME280;6551;51.056;9.466;2023-02-18T07:01:19;97804.38;;;10.02;100.00
12973;BME280;6551;51.056;9.466;2023-02-18T07:03:47;97804.75;;;10.18;100.00
12973;BME280;6551;51.056;9.466;2023-02-18T07:06:12;97794.69;;;10.20;100.00
12973;BME280;6551;51.056;9.466;2023-02-18T07:08:38;97792.84;;;10.21;100.00
12973;BME280;6551;51.056;9.466;2023-02-18T07:11:05;97784.03;;;10.27;100.00
12973;BME280;6551;51.056;9.466;2023-02-18T07:13:31;97775.47;;;10.18;100.00
12973;BME280;6551;51.056;9.466;2023-02-18T07:15:57;97764.00;;;10.24;100.00
12973;BME280;6551;51.056;9.466;2023-02-18T07:18:24;97763.50;;;10.34;100.00
12973;BME280;6551;51.056;9.466;2023-02-18T07:20:50;97759.59;;;10.36;100.00
12973;BME280;6551;51.056;9.466;2023-02-18T07:23:16;97765.22;;;10.53;100.00
12973;BME280;6551;51.056;9.466;2023-02-18T07:25:42;97767.06;;;10.21;100.00
12973;BME280;6551;51.056;9.466;2023-02-18T07:28:09;97773.38;;;10.27;100.00
12973;BME280;6551;51.056;9.466;2023-02-18T07:30:36;97761.91;;;10.26;100.00
12973;BME280;6551;51.056;9.466;2023-02-18T07:33:02;97766.06;;;10.09;100.00
12973;BME280;6551;51.056;9.466;2023-02-18T07:35:28;97766.75;;;9.98;100.00
12973;BME280;6551;51.056;9.466;2023-02-18T07:37:55;97759.78;;;9.97;100.00
12973;BME280;6551;51.056;9.466;2023-02-18T07:40:23;97758.13;;;10.02;100.00
12973;BME280;6551;51.056;9.466;2023-02-18T07:42:49;97751.19;;;10.02;100.00
12973;BME280;6551;51.056;9.466;2023-02-18T07:45:15;97756.09;;;10.05;100.00
12973;BME280;6551;51.056;9.466;2023-02-18T07:47:41;97769.81;;;10.02;100.00
12973;BME280;6551;51.056;9.466;2023-02-18T07:50:09;97757.47;;;10.14;100.00
12973;BME280;6551;51.056;9.466;2023-02-18T07:52:35;97768.97;;;10.01;100.00
12973;BME280;6551;51.056;9.466;2023-02-18T07:55:01;97776.09;;;10.14;100.00
12973;BME280;6551;51.056;9.466;2023-02-18T07:57:27;97781.22;;;10.09;100.00
12973;BME280;6551;51.056;9.466;2023-02-18T07:59:53;97779.59;;;10.08;100.00
12973;BME280;6551;51.056;9.466;2023-02-18T08:02:22;97775.06;;;10.08;100.00
12973;BME280;6551;51.056;9.466;2023-02-18T08:04:48;97772.06;;;9.98;100.00
12973;BME280;6551;51.056;9.466;2023-02-18T08:07:16;97777.72;;;10.08;100.00
12973;BME280;6551;51.056;9.466;2023-02-18T08:09:44;97767.31;;;10.07;100.00
12973;BME280;6551;51.056;9.466;2023-02-18T08:12:09;97768.94;;;10.14;100.00
12973;BME280;6551;51.056;9.466;2023-02-18T08:14:35;97761.53;;;10.16;100.00
12973;BME280;6551;51.056;9.466;2023-02-18T08:17:03;97770.75;;;10.20;100.00
12973;BME280;6551;51.056;9.466;2023-02-18T08:19:30;97751.38;;;10.13;100.00
12973;BME280;6551;51.056;9.466;2023-02-18T08:21:55;97750.72;;;10.11;100.00
12973;BME280;6551;51.056;9.466;2023-02-18T08:24:22;97750.69;;;10.24;100.00
12973;BME280;6551;51.056;9.466;2023-02-18T08:26:49;97753.38;;;10.18;100.00
12973;BME280;6551;51.056;9.466;2023-02-18T08:29:16;97746.56;;;10.22;100.00
12973;BME280;6551;51.056;9.466;2023-02-18T08:31:41;97750.72;;;10.11;100.00
12973;BME280;6551;51.056;9.466;2023-02-18T08:34:07;97757.06;;;10.10;100.00
12973;BME280;6551;51.056;9.466;2023-02-18T08:36:35;97761.34;;;10.18;100.00
12973;BME280;6551;51.056;9.466;2023-02-18T08:39:01;97757.47;;;10.14;100.00
12973;BME280;6551;51.056;9.466;2023-02-18T08:41:27;97742.94;;;10.10;100.00
12973;BME280;6551;51.056;9.466;2023-02-18T08:43:53;97746.84;;;10.07;100.00
12973;BME280;6551;51.056;9.466;2023-02-18T08:46:19;97746.22;;;10.12;100.00
12973;BME280;6551;51.056;9.466;2023-02-18T08:48:46;97729.41;;;10.11;100.00
12973;BME280;6551;51.056;9.466;2023-02-18T08:51:19;97754.00;;;10.07;100.00
12973;BME280;6551;51.056;9.466;2023-02-18T08:53:48;97749.88;;;10.17;100.00
12973;BME280;6551;51.056;9.466;2023-02-18T08:56:14;97750.47;;;11.00;100.00
12973;BME280;6551;51.056;9.466;2023-02-18T08:58:41;97734.78;;;10.67;100.00
12973;BME280;6551;51.056;9.466;2023-02-18T09:01:09;97720.50;;;10.37;100.00
12973;BME280;6551;51.056;9.466;2023-02-18T09:03:38;97756.34;;;10.34;100.00
12973;BME280;6551;51.056;9.466;2023-02-18T09:06:04;97758.19;;;10.34;100.00
12973;BME280;6551;51.056;9.466;2023-02-18T09:08:30;97750.97;;;10.41;100.00
12973;BME280;6551;51.056;9.466;2023-02-18T09:10:59;97744.16;;;10.51;100.00
12973;BME280;6551;51.056;9.466;2023-02-18T09:13:26;97740.00;;;10.55;100.00
12973;BME280;6551;51.056;9.466;2023-02-18T09:15:56;97730.00;;;10.51;100.00
12973;BME280;6551;51.056;9.466;2023-02-18T09:18:22;97734.09;;;10.53;100.00
12973;BME280;6551;51.056;9.466;2023-02-18T09:20:48;97744.53;;;10.55;100.00
12973;BME280;6551;51.056;9.466;2023-02-18T09:23:14;97745.31;;;10.55;100.00
12973;BME280;6551;51.056;9.466;2023-02-18T09:25:41;97727.75;;;10.54;99.85
12973;BME280;6551;51.056;9.466;2023-02-18T09:28:07;97744.34;;;10.50;99.82
12973;BME280;6551;51.056;9.466;2023-02-18T09:30:34;97721.09;;;10.64;99.84
12973;BME280;6551;51.056;9.466;2023-02-18T09:33:00;97737.88;;;10.89;98.53
12973;BME280;6551;51.056;9.466;2023-02-18T09:35:26;97737.34;;;10.80;98.36
12973;BME280;6551;51.056;9.466;2023-02-18T09:37:54;97743.06;;;10.84;97.74
12973;BME280;6551;51.056;9.466;2023-02-18T09:40:26;97712.63;;;10.73;97.59
12973;BME280;6551;51.056;9.466;2023-02-18T09:42:55;97722.66;;;10.96;97.23
12973;BME280;6551;51.056;9.466;2023-02-18T09:45:23;97743.13;;;11.02;96.59
12973;BME280;6551;51.056;9.466;2023-02-18T09:47:51;97736.84;;;10.90;96.05
12973;BME280;6551;51.056;9.466;2023-02-18T09:50:31;97739.22;;;10.80;96.16
12973;BME280;6551;51.056;9.466;2023-02-18T09:53:01;97741.69;;;10.99;96.38
12973;BME280;6551;51.056;9.466;2023-02-18T09:55:41;97726.34;;;10.95;95.59
12973;BME280;6551;51.056;9.466;2023-02-18T10:03:36;97718.88;;;10.85;94.61
12973;BME280;6551;51.056;9.466;2023-02-18T10:06:21;97735.00;;;10.90;94.61
12973;BME280;6551;51.056;9.466;2023-02-18T10:09:32;97741.94;;;10.91;94.77
12973;BME280;6551;51.056;9.466;2023-02-18T10:12:15;97722.59;;;11.02;94.25
12973;BME280;6551;51.056;9.466;2023-02-18T10:15:00;97736.78;;;11.21;91.79
12973;BME280;6551;51.056;9.466;2023-02-18T10:17:30;97744.47;;;11.29;90.26
12973;BME280;6551;51.056;9.466;2023-02-18T10:19:59;97734.75;;;11.53;89.37
12973;BME280;6551;51.056;9.466;2023-02-18T10:22:26;97735.66;;;11.65;88.36
12973;BME280;6551;51.056;9.466;2023-02-18T10:24:58;97736.72;;;11.46;88.56
12973;BME280;6551;51.056;9.466;2023-02-18T10:27:32;97738.63;;;11.21;89.23
12973;BME280;6551;51.056;9.466;2023-02-18T10:32:43;97724.81;;;11.05;87.81
12973;BME280;6551;51.056;9.466;2023-02-18T10:35:51;97742.50;;;11.00;87.39
12973;BME280;6551;51.056;9.466;2023-02-18T10:42:03;97704.03;;;10.96;87.12
12973;BME280;6551;51.056;9.466;2023-02-18T10:47:38;97711.88;;;10.91;85.25
12973;BME280;6551;51.056;9.466;2023-02-18T10:50:36;97709.13;;;10.97;85.10
12973;BME280;6551;51.056;9.466;2023-02-18T10:55:57;97701.69;;;11.24;83.94
12973;BME280;6551;51.056;9.466;2023-02-18T10:58:34;97704.94;;;11.26;84.21
12973;BME280;6551;51.056;9.466;2023-02-18T11:01:16;97707.31;;;11.34;82.93
12973;BME280;6551;51.056;9.466;2023-02-18T11:03:50;97682.66;;;11.21;82.86
12973;BME280;6551;51.056;9.466;2023-02-18T11:09:05;97720.53;;;11.04;80.59
12973;BME280;6551;51.056;9.466;2023-02-18T11:11:38;97719.72;;;11.04;79.73
12973;BME280;6551;51.056;9.466;2023-02-18T11:14:20;97673.03;;;11.01;79.11
12973;BME280;6551;51.056;9.466;2023-02-18T11:17:14;97678.50;;;11.06;79.58
12973;BME280;6551;51.056;9.466;2023-02-18T11:19:41;97677.00;;;10.92;79.86
12973;BME280;6551;51.056;9.466;2023-02-18T11:22:27;97666.50;;;10.97;78.88
12973;BME280;6551;51.056;9.466;2023-02-18T11:24:58;97667.31;;;10.98;78.10
12973;BME280;6551;51.056;9.466;2023-02-18T11:28:04;97659.47;;;10.85;78.71
12973;BME280;6551;51.056;9.466;2023-02-18T11:30:38;97686.16;;;10.78;79.72
12973;BME280;6551;51.056;9.466;2023-02-18T11:39:05;97695.25;;;10.71;81.52
12973;BME280;6551;51.056;9.466;2023-02-18T11:41:43;97680.41;;;10.56;82.21
12973;BME280;6551;51.056;9.466;2023-02-18T11:44:39;97673.78;;;10.41;83.24
12973;BME280;6551;51.056;9.466;2023-02-18T11:49:43;97666.56;;;10.48;84.15
12973;BME280;6551;51.056;9.466;2023-02-18T11:52:32;97676.44;;;10.41;83.18
12973;BME280;6551;51.056;9.466;2023-02-18T11:55:20;97685.63;;;10.45;83.78
12973;BME280;6551;51.056;9.466;2023-02-18T11:57:57;97686.72;;;10.37;83.45
12973;BME280;6551;51.056;9.466;2023-02-18T12:00:43;97692.44;;;10.41;83.60
12973;BME280;6551;51.056;9.466;2023-02-18T12:03:32;97690.06;;;10.51;83.08
12973;BME280;6551;51.056;9.466;2023-02-18T12:06:14;97678.13;;;10.35;83.67
12973;BME280;6551;51.056;9.466;2023-02-18T12:08:58;97685.31;;;10.35;83.84
12973;BME280;6551;51.056;9.466;2023-02-18T12:11:34;97704.41;;;10.25;84.53
12973;BME280;6551;51.056;9.466;2023-02-18T12:14:08;97708.69;;;10.26;84.27
12973;BME280;6551;51.056;9.466;2023-02-18T12:23:34;97690.47;;;10.30;84.43
12973;BME280;6551;51.056;9.466;2023-02-18T12:26:35;97689.63;;;10.29;85.24
12973;BME280;6551;51.056;9.466;2023-02-18T12:43:08;97701.66;;;10.38;85.46
12973;BME280;6551;51.056;9.466;2023-02-18T12:46:26;97689.38;;;10.37;85.54
12973;BME280;6551;51.056;9.466;2023-02-18T13:13:20;97680.94;;;10.65;85.75
12973;BME280;6551;51.056;9.466;2023-02-18T13:15:58;97681.28;;;10.50;85.30
12973;BME280;6551;51.056;9.466;2023-02-18T13:18:41;97683.88;;;10.57;86.10
12973;BME280;6551;51.056;9.466;2023-02-18T13:21:14;97691.88;;;10.57;85.67
12973;BME280;6551;51.056;9.466;2023-02-18T13:24:01;97697.34;;;10.62;85.63
12973;BME280;6551;51.056;9.466;2023-02-18T13:26:29;97686.59;;;10.50;85.81
12973;BME280;6551;51.056;9.466;2023-02-18T13:29:36;97696.25;;;10.70;85.36
12973;BME280;6551;51.056;9.466;2023-02-18T13:40:55;97687.13;;;10.59;87.24
12973;BME280;6551;51.056;9.466;2023-02-18T13:43:35;97688.72;;;10.67;87.02
12973;BME280;6551;51.056;9.466;2023-02-18T13:46:23;97694.66;;;10.69;87.31
12973;BME280;6551;51.056;9.466;2023-02-18T13:51:49;97679.38;;;10.57;87.66
12973;BME280;6551;51.056;9.466;2023-02-18T13:54:30;97678.34;;;10.58;87.94
12973;BME280;6551;51.056;9.466;2023-02-18T13:57:04;97684.91;;;10.56;88.11
12973;BME280;6551;51.056;9.466;2023-02-18T13:59:45;97679.44;;;10.51;88.18
12973;BME280;6551;51.056;9.466;2023-02-18T14:02:34;97677.19;;;10.48;88.39
12973;BME280;6551;51.056;9.466;2023-02-18T14:10:32;97702.72;;;10.55;88.83
12973;BME280;6551;51.056;9.466;2023-02-18T14:13:22;97690.03;;;10.57;88.64
12973;BME280;6551;51.056;9.466;2023-02-18T14:15:58;97693.88;;;10.62;87.95
12973;BME280;6551;51.056;9.466;2023-02-18T14:21:20;97693.88;;;10.62;88.45
12973;BME280;6551;51.056;9.466;2023-02-18T14:23:59;97684.63;;;10.64;88.11
12973;BME280;6551;51.056;9.466;2023-02-18T14:26:36;97698.91;;;10.70;88.29
12973;BME280;6551;51.056;9.466;2023-02-18T14:29:25;97699.91;;;10.75;88.17
12973;BME280;6551;51.056;9.466;2023-02-18T14:32:02;97703.63;;;10.74;87.64
12973;BME280;6551;51.056;9.466;2023-02-18T14:40:57;97693.56;;;10.76;88.07
12973;BME280;6551;51.056;9.466;2023-02-18T14:51:39;97705.84;;;10.77;89.01
12973;BME280;6551;51.056;9.466;2023-02-18T14:54:15;97700.34;;;10.72;89.47
12973;BME280;6551;51.056;9.466;2023-02-18T14:57:07;97702.09;;;10.60;90.18
12973;BME280;6551;51.056;9.466;2023-02-18T14:59:40;97701.22;;;10.66;90.63
12973;BME280;6551;51.056;9.466;2023-02-18T15:02:23;97699.31;;;10.73;90.60
12973;BME280;6551;51.056;9.466;2023-02-18T15:04:52;97713.72;;;10.66;91.14
12973;BME280;6551;51.056;9.466;2023-02-18T15:07:20;97700.41;;;10.66;91.63
12973;BME280;6551;51.056;9.466;2023-02-18T15:09:54;97701.75;;;10.75;91.42
12973;BME280;6551;51.056;9.466;2023-02-18T15:12:23;97704.09;;;10.65;91.98
12973;BME280;6551;51.056;9.466;2023-02-18T15:14:52;97676.28;;;10.61;93.07
12973;BME280;6551;51.056;9.466;2023-02-18T15:17:24;97699.97;;;10.44;93.59
12973;BME280;6551;51.056;9.466;2023-02-18T15:19:59;97702.44;;;10.39;94.43
12973;BME280;6551;51.056;9.466;2023-02-18T15:22:32;97684.63;;;10.39;94.65
12973;BME280;6551;51.056;9.466;2023-02-18T15:25:02;97716.75;;;10.44;94.75
12973;BME280;6551;51.056;9.466;2023-02-18T15:27:45;97704.81;;;10.53;95.00
12973;BME280;6551;51.056;9.466;2023-02-18T15:30:28;97701.97;;;10.48;95.19
12973;BME280;6551;51.056;9.466;2023-02-18T15:32:58;97695.53;;;10.63;94.78
12973;BME280;6551;51.056;9.466;2023-02-18T15:35:30;97701.16;;;10.48;94.80
12973;BME280;6551;51.056;9.466;2023-02-18T15:37:58;97700.50;;;10.52;95.33
12973;BME280;6551;51.056;9.466;2023-02-18T15:40:33;97699.09;;;10.50;94.74
12973;BME280;6551;51.056;9.466;2023-02-18T15:43:04;97706.91;;;10.70;94.57
12973;BME280;6551;51.056;9.466;2023-02-18T15:45:35;97714.16;;;10.63;94.85
12973;BME280;6551;51.056;9.466;2023-02-18T15:48:04;97704.63;;;10.73;94.54
12973;BME280;6551;51.056;9.466;2023-02-18T15:50:47;97702.53;;;10.57;95.12
12973;BME280;6551;51.056;9.466;2023-02-18T15:53:16;97699.16;;;10.43;95.71